createdAt,value
2018-09-22T00:01:51.338Z,13.10
2018-09-22T00:04:21.608Z,13.10
2018-09-22T00:06:50.929Z,13.10
2018-09-22T00:09:20.795Z,13.00
2018-09-22T00:11:50.069Z,13.00
2018-09-22T00:14:19.389Z,13.00
2018-09-22T00:16:49.439Z,13.00
2018-09-22T00:19:18.839Z,12.90
2018-09-22T00:21:48.128Z,12.90
2018-09-22T00:24:17.398Z,12.90
2018-09-22T00:26:46.698Z,12.90
2018-09-22T00:29:16.094Z,12.90
2018-09-22T00:31:46.948Z,12.90
2018-09-22T00:34:16.275Z,12.80
2018-09-22T00:36:45.530Z,12.70
2018-09-22T00:39:14.887Z,12.60
2018-09-22T00:41:44.434Z,12.60
2018-09-22T00:44:13.769Z,12.50
2018-09-22T00:46:43.073Z,12.50
2018-09-22T00:49:12.349Z,12.50
2018-09-22T00:51:41.890Z,12.40
2018-09-22T00:54:11.146Z,12.40
2018-09-22T00:56:42.154Z,12.40
2018-09-22T00:59:11.458Z,12.40
2018-09-22T01:01:40.678Z,12.40
2018-09-22T01:04:09.963Z,12.40
2018-09-22T01:06:39.217Z,12.40
2018-09-22T01:09:09.478Z,12.40
2018-09-22T01:11:38.975Z,12.40
2018-09-22T01:14:08.600Z,12.40
2018-09-22T01:16:38.157Z,12.30
2018-09-22T01:19:07.421Z,12.30
2018-09-22T01:21:37.039Z,12.40
2018-09-22T01:24:06.614Z,12.40
2018-09-22T01:26:35.922Z,12.40
2018-09-22T01:29:05.755Z,12.40
2018-09-22T01:31:35.050Z,12.40
2018-09-22T01:34:04.365Z,12.40
2018-09-22T01:36:33.819Z,12.40
2018-09-22T01:39:03.223Z,12.40
2018-09-22T01:41:32.522Z,12.40
2018-09-22T01:44:02.348Z,12.30
2018-09-22T01:46:31.712Z,12.30
2018-09-22T01:49:01.041Z,12.30
2018-09-22T01:51:30.747Z,12.20
2018-09-22T01:54:00.010Z,12.20
2018-09-22T01:56:29.250Z,12.20
2018-09-22T01:58:58.497Z,12.20
2018-09-22T02:01:27.750Z,12.10
2018-09-22T02:03:57.412Z,12.10
2018-09-22T02:06:26.682Z,12.10
2018-09-22T02:08:55.933Z,12.10
2018-09-22T02:11:25.177Z,12.10
2018-09-22T02:13:54.438Z,12.10
2018-09-22T02:16:24.010Z,12.10
2018-09-22T02:18:53.311Z,12.10
2018-09-22T02:21:22.554Z,12.10
2018-09-22T02:23:52.707Z,12.10
2018-09-22T02:26:22.031Z,12.10
2018-09-22T02:28:51.305Z,12.10
2018-09-22T02:31:20.564Z,12.10
2018-09-22T02:33:49.809Z,12.10
2018-09-22T02:36:19.110Z,12.10
2018-09-22T02:38:48.548Z,12.00
2018-09-22T02:41:17.900Z,12.00
2018-09-22T02:43:47.496Z,12.00
2018-09-22T02:46:16.837Z,12.00
2018-09-22T02:48:46.188Z,11.90
2018-09-22T02:51:15.606Z,11.90
2018-09-22T02:53:44.891Z,11.90
2018-09-22T02:56:14.661Z,11.80
2018-09-22T02:58:43.928Z,11.80
2018-09-22T03:01:13.199Z,11.80
2018-09-22T03:06:11.554Z,11.80
2018-09-22T03:08:41.193Z,11.70
2018-09-22T03:11:10.477Z,11.70
2018-09-22T03:13:39.790Z,11.60
2018-09-22T03:16:09.079Z,11.60
2018-09-22T03:18:38.531Z,11.60
2018-09-22T03:21:07.934Z,11.60
2018-09-22T03:26:16.725Z,11.60
2018-09-22T03:28:46.015Z,11.60
2018-09-22T03:31:20.911Z,11.50
2018-09-22T03:33:50.242Z,11.40
2018-09-22T03:36:19.598Z,11.40
2018-09-22T03:38:49.046Z,11.40
2018-09-22T03:41:18.353Z,11.30
2018-09-22T03:43:47.656Z,11.30
2018-09-22T03:46:16.926Z,11.30
2018-09-22T03:48:46.241Z,11.20
2018-09-22T03:51:15.554Z,11.20
2018-09-22T03:53:44.862Z,11.10
2018-09-22T03:56:14.182Z,11.10
2018-09-22T03:58:43.517Z,11.10
2018-09-22T04:01:12.830Z,11.10
2018-09-22T04:03:42.126Z,11.10
2018-09-22T04:06:11.525Z,11.10
2018-09-22T04:08:41.026Z,11.10
2018-09-22T04:11:10.525Z,11.10
2018-09-22T04:13:40.136Z,11.00
2018-09-22T04:16:09.479Z,11.00
2018-09-22T04:18:38.819Z,11.00
2018-09-22T04:21:08.330Z,11.10
2018-09-22T04:23:37.678Z,11.10
2018-09-22T04:26:07.024Z,11.10
2018-09-22T04:28:36.418Z,11.10
2018-09-22T04:31:05.787Z,11.10
2018-09-22T04:33:35.081Z,11.10
2018-09-22T04:36:04.418Z,11.10
2018-09-22T04:38:33.733Z,11.20
2018-09-22T04:41:03.043Z,11.20
2018-09-22T04:43:32.379Z,11.30
2018-09-22T04:46:01.651Z,11.30
2018-09-22T04:48:30.889Z,11.30
2018-09-22T04:51:00.121Z,11.30
2018-09-22T04:53:29.441Z,11.30
2018-09-22T04:55:58.824Z,11.30
2018-09-22T04:58:28.155Z,11.30
2018-09-22T05:00:57.440Z,11.30
2018-09-22T05:03:26.695Z,11.30
2018-09-22T05:05:55.915Z,11.30
2018-09-22T05:08:25.204Z,11.30
2018-09-22T05:10:54.455Z,11.30
2018-09-22T05:13:23.982Z,11.30
2018-09-22T05:15:53.189Z,11.30
2018-09-22T05:18:22.471Z,11.30
2018-09-22T05:20:51.803Z,11.30
2018-09-22T05:23:21.094Z,11.20
2018-09-22T05:25:50.495Z,11.20
2018-09-22T05:28:19.859Z,11.20
2018-09-22T05:30:49.144Z,11.10
2018-09-22T05:33:18.463Z,11.20
2018-09-22T05:35:47.938Z,11.10
2018-09-22T05:38:17.199Z,11.10
2018-09-22T05:40:46.520Z,11.10
2018-09-22T05:43:15.762Z,11.10
2018-09-22T05:45:45.043Z,11.10
2018-09-22T05:48:14.322Z,11.10
2018-09-22T05:50:43.621Z,11.10
2018-09-22T05:53:12.973Z,11.20
2018-09-22T05:55:42.363Z,11.30
2018-09-22T05:58:11.751Z,11.90
2018-09-22T06:00:41.114Z,12.40
2018-09-22T06:03:11.134Z,12.60
2018-09-22T06:05:40.517Z,13.00
2018-09-22T06:08:09.812Z,13.10
2018-09-22T06:10:39.150Z,13.20
2018-09-22T06:13:08.432Z,13.30
2018-09-22T06:15:37.772Z,13.30
2018-09-22T06:18:07.090Z,13.30
2018-09-22T06:20:36.558Z,13.30
2018-09-22T06:23:06.014Z,13.20
2018-09-22T06:25:35.922Z,13.20
2018-09-22T06:28:05.993Z,13.20
2018-09-22T06:30:35.335Z,13.30
2018-09-22T06:33:04.681Z,13.30
2018-09-22T06:35:34.002Z,13.20
2018-09-22T06:38:03.264Z,13.20
2018-09-22T06:40:33.671Z,13.40
2018-09-22T06:43:03.027Z,13.50
2018-09-22T06:45:32.511Z,13.60
2018-09-22T06:48:01.905Z,13.60
2018-09-22T06:50:31.286Z,13.70
2018-09-22T06:53:00.649Z,13.70
2018-09-22T06:55:30.030Z,13.80
2018-09-22T06:57:59.394Z,14.00
2018-09-22T07:00:28.810Z,14.20
2018-09-22T07:02:58.092Z,14.30
2018-09-22T07:05:27.431Z,14.40
2018-09-22T07:07:57.040Z,14.20
2018-09-22T07:10:26.407Z,14.20
2018-09-22T07:12:56.279Z,14.20
2018-09-22T07:15:25.706Z,14.40
2018-09-22T07:17:55.317Z,14.60
2018-09-22T07:20:24.702Z,14.70
2018-09-22T07:22:59.366Z,14.70
2018-09-22T07:25:28.804Z,14.70
2018-09-22T07:27:59.025Z,14.80
2018-09-22T07:30:28.394Z,14.70
2018-09-22T07:32:58.411Z,14.80
2018-09-22T07:35:27.795Z,14.60
2018-09-22T07:37:57.735Z,14.70
2018-09-22T07:40:27.123Z,14.80
2018-09-22T07:42:56.403Z,15.00
2018-09-22T07:45:26.353Z,15.00
2018-09-22T07:47:55.826Z,14.90
2018-09-22T07:50:25.358Z,14.90
2018-09-22T07:52:54.710Z,14.90
2018-09-22T07:55:24.076Z,15.00
2018-09-22T07:57:53.445Z,14.90
2018-09-22T08:00:22.877Z,14.90
2018-09-22T08:02:52.245Z,14.90
2018-09-22T08:05:21.721Z,14.80
2018-09-22T08:07:51.050Z,14.90
2018-09-22T08:10:20.524Z,15.00
2018-09-22T08:12:49.970Z,15.00
2018-09-22T08:15:19.420Z,15.00
2018-09-22T08:17:48.952Z,15.10
2018-09-22T08:20:18.335Z,15.20
2018-09-22T08:22:47.811Z,15.20
2018-09-22T08:25:17.313Z,15.40
2018-09-22T08:27:46.673Z,15.50
2018-09-22T08:30:16.018Z,15.60
2018-09-22T08:32:45.425Z,15.70
2018-09-22T08:35:14.854Z,15.70
2018-09-22T08:37:44.191Z,15.70
2018-09-22T08:40:13.458Z,15.70
2018-09-22T08:42:42.839Z,15.90
2018-09-22T08:45:12.193Z,15.90
2018-09-22T08:47:41.535Z,15.90
2018-09-22T08:50:11.043Z,15.90
2018-09-22T08:52:40.383Z,16.00
2018-09-22T08:55:09.759Z,16.00
2018-09-22T08:57:39.108Z,16.10
2018-09-22T09:00:08.451Z,16.30
2018-09-22T09:02:37.728Z,16.40
2018-09-22T09:05:07.250Z,16.40
2018-09-22T09:07:36.463Z,16.40
2018-09-22T09:10:06.270Z,16.50
2018-09-22T09:12:35.582Z,16.50
2018-09-22T09:15:12.195Z,16.60
2018-09-22T09:20:23.760Z,16.90
2018-09-22T09:22:53.746Z,16.90
2018-09-22T09:25:24.485Z,16.90
2018-09-22T09:27:56.007Z,17.00
2018-09-22T09:30:25.504Z,16.90
2018-09-22T09:32:58.237Z,17.10
2018-09-22T09:35:27.888Z,17.20
2018-09-22T09:37:57.553Z,17.30
2018-09-22T09:40:27.452Z,17.40
2018-09-22T09:42:57.076Z,17.40
2018-09-22T09:45:26.550Z,17.20
2018-09-22T09:48:00.704Z,17.40
2018-09-22T09:50:31.597Z,17.60
2018-09-22T09:53:02.315Z,17.80
2018-09-22T09:55:36.238Z,17.90
2018-09-22T09:58:06.706Z,18.00
2018-09-22T10:00:42.191Z,18.10
2018-09-22T10:03:14.871Z,18.10
2018-09-22T10:05:44.775Z,18.20
2018-09-22T10:08:14.394Z,18.20
2018-09-22T10:10:43.975Z,18.00
2018-09-22T10:13:13.541Z,17.80
2018-09-22T10:15:43.021Z,17.90
2018-09-22T10:18:12.901Z,17.80
2018-09-22T10:20:42.392Z,17.80
2018-09-22T10:23:12.599Z,18.00
2018-09-22T10:25:42.001Z,18.00
2018-09-22T10:28:11.971Z,17.90
2018-09-22T10:30:41.414Z,17.90
2018-09-22T10:33:11.338Z,17.90
2018-09-22T10:35:41.872Z,17.80
2018-09-22T10:38:11.573Z,17.90
2018-09-22T10:40:42.039Z,18.00
2018-09-22T10:43:11.490Z,17.70
2018-09-22T10:45:40.913Z,17.70
2018-09-22T10:48:10.295Z,17.60
2018-09-22T10:50:39.786Z,17.70
2018-09-22T10:53:09.160Z,18.00
2018-09-22T10:55:38.497Z,18.20
2018-09-22T10:58:07.822Z,18.30
2018-09-22T11:00:37.188Z,18.40
2018-09-22T11:03:06.605Z,18.50
2018-09-22T11:05:35.881Z,18.80
2018-09-22T11:08:05.297Z,18.70
2018-09-22T11:10:34.903Z,18.50
2018-09-22T11:13:04.336Z,18.60
2018-09-22T11:15:33.848Z,18.70
2018-09-22T11:18:03.219Z,18.50
2018-09-22T11:20:32.798Z,18.30
2018-09-22T11:23:02.287Z,18.10
2018-09-22T11:25:32.063Z,18.00
2018-09-22T11:28:01.394Z,18.00
2018-09-22T11:30:30.805Z,18.10
2018-09-22T11:33:00.302Z,17.90
2018-09-22T11:35:29.681Z,18.00
2018-09-22T11:37:59.040Z,18.20
2018-09-22T11:40:28.363Z,18.30
2018-09-22T11:42:57.676Z,18.50
2018-09-22T11:45:27.047Z,18.90
2018-09-22T11:47:56.485Z,19.30
2018-09-22T11:50:25.963Z,19.50
2018-09-22T11:52:55.466Z,19.50
2018-09-22T11:55:24.895Z,19.70
2018-09-22T11:57:54.288Z,19.90
2018-09-22T12:00:23.689Z,19.90
2018-09-22T12:02:53.061Z,19.50
2018-09-22T12:05:22.530Z,19.40
2018-09-22T12:07:51.936Z,19.30
2018-09-22T12:10:22.099Z,19.40
2018-09-22T12:12:51.617Z,19.60
2018-09-22T12:15:21.105Z,19.60
2018-09-22T12:17:50.429Z,19.60
2018-09-22T12:20:20.164Z,19.50
2018-09-22T12:22:49.481Z,19.60
2018-09-22T12:25:18.959Z,19.80
2018-09-22T12:27:48.386Z,19.80
2018-09-22T12:30:17.776Z,20.00
2018-09-22T12:32:47.298Z,20.40
2018-09-22T12:35:16.872Z,20.60
2018-09-22T12:37:46.313Z,20.70
2018-09-22T12:40:15.816Z,21.00
2018-09-22T12:42:45.440Z,20.80
2018-09-22T12:45:15.739Z,20.80
2018-09-22T12:47:45.130Z,20.90
2018-09-22T12:50:14.443Z,21.00
2018-09-22T12:52:43.830Z,21.00
2018-09-22T12:55:13.199Z,20.90
2018-09-22T12:57:42.611Z,20.80
2018-09-22T13:00:12.022Z,20.90
2018-09-22T13:02:41.566Z,20.90
2018-09-22T13:05:10.981Z,20.80
2018-09-22T13:07:40.395Z,20.70
2018-09-22T13:10:09.790Z,20.50
2018-09-22T13:12:39.239Z,20.40
2018-09-22T13:15:08.632Z,20.40
2018-09-22T13:17:38.077Z,20.20
2018-09-22T13:20:07.543Z,20.20
2018-09-22T13:22:36.939Z,20.00
2018-09-22T13:25:06.346Z,20.10
2018-09-22T13:27:35.813Z,20.00
2018-09-22T13:30:06.029Z,20.00
2018-09-22T13:32:35.556Z,19.90
2018-09-22T13:35:05.207Z,19.60
2018-09-22T13:37:34.571Z,19.60
2018-09-22T13:40:04.019Z,19.30
2018-09-22T13:42:33.359Z,19.30
2018-09-22T13:45:02.718Z,19.60
2018-09-22T13:47:32.095Z,20.00
2018-09-22T13:50:01.450Z,20.20
2018-09-22T13:52:31.156Z,20.30
2018-09-22T13:55:00.452Z,20.40
2018-09-22T13:57:30.246Z,20.50
2018-09-22T13:59:59.707Z,20.40
2018-09-22T14:02:29.344Z,20.30
2018-09-22T14:04:58.904Z,20.30
2018-09-22T14:07:28.636Z,20.30
2018-09-22T14:09:58.163Z,20.40
2018-09-22T14:12:27.538Z,20.30
2018-09-22T14:14:56.883Z,20.30
2018-09-22T14:17:26.318Z,20.20
2018-09-22T14:19:55.712Z,20.00
2018-09-22T14:22:31.069Z,19.80
2018-09-22T14:25:03.716Z,19.70
2018-09-22T14:27:44.654Z,19.50
2018-09-22T14:30:20.666Z,19.50
2018-09-22T14:32:56.666Z,19.40
2018-09-22T14:35:28.914Z,19.50
2018-09-22T14:38:02.033Z,19.50
2018-09-22T14:40:37.817Z,19.70
2018-09-22T14:43:11.443Z,19.70
2018-09-22T14:45:56.109Z,19.80
2018-09-22T14:48:34.795Z,19.90
2018-09-22T14:51:06.789Z,20.10
2018-09-22T14:53:38.597Z,20.00
2018-09-22T14:56:10.508Z,19.90
2018-09-22T14:58:41.803Z,19.80
2018-09-22T15:01:13.692Z,19.80
2018-09-22T15:03:51.144Z,19.70
2018-09-22T15:06:26.745Z,19.60
2018-09-22T15:19:23.704Z,19.20
2018-09-22T15:22:11.392Z,19.10
2018-09-22T15:24:44.610Z,19.00
2018-09-22T15:27:15.092Z,19.00
2018-09-22T15:29:53.241Z,18.90
2018-09-22T15:32:28.535Z,18.90
2018-09-22T15:34:59.898Z,18.80
2018-09-22T15:37:35.290Z,18.70
2018-09-22T15:40:06.848Z,18.50
2018-09-22T15:42:46.333Z,18.30
2018-09-22T15:45:18.226Z,18.30
2018-09-22T15:48:04.619Z,18.10
2018-09-22T15:50:40.454Z,18.00
2018-09-22T15:53:12.263Z,17.80
2018-09-22T15:55:44.477Z,17.80
2018-09-22T15:58:16.548Z,17.70
2018-09-22T16:00:51.238Z,17.60
2018-09-22T16:03:32.072Z,17.50
2018-09-22T16:06:06.188Z,17.50
2018-09-22T16:08:51.871Z,17.40
2018-09-22T16:11:25.151Z,17.30
2018-09-22T16:14:21.264Z,17.30
2018-09-22T16:21:31.035Z,17.10
2018-09-22T16:47:51.795Z,16.60
2018-09-22T16:50:45.778Z,16.60
2018-09-22T16:53:21.360Z,16.50
2018-09-22T16:56:00.685Z,16.40
2018-09-22T16:58:40.718Z,16.30
2018-09-22T17:01:13.802Z,16.20
2018-09-22T17:03:49.361Z,16.20
2018-09-22T17:06:22.658Z,16.10
2018-09-22T17:08:55.577Z,16.10
2018-09-22T17:11:28.413Z,16.10
2018-09-22T17:14:10.525Z,16.00
2018-09-22T17:16:45.406Z,16.00
2018-09-22T17:19:20.258Z,15.90
2018-09-22T17:21:57.549Z,15.90
2018-09-22T17:24:29.114Z,15.90
2018-09-22T17:27:00.493Z,15.90
2018-09-22T17:29:34.194Z,15.80
2018-09-22T17:32:17.311Z,15.80
2018-09-22T17:35:30.640Z,15.80
2018-09-22T17:41:41.709Z,16.10
2018-09-22T17:44:19.095Z,16.20
2018-09-22T17:46:56.389Z,16.10
2018-09-22T17:49:29.281Z,16.00
2018-09-22T17:52:03.184Z,16.00
2018-09-22T17:54:41.911Z,15.90
2018-09-22T17:57:24.793Z,15.70
2018-09-22T18:00:31.892Z,15.80
2018-09-22T18:03:06.220Z,15.70
2018-09-22T18:05:55.108Z,15.70
2018-09-22T18:08:30.777Z,15.70
2018-09-22T18:14:10.864Z,15.50
2018-09-22T18:16:53.797Z,15.60
2018-09-22T18:19:32.444Z,15.50
2018-09-22T18:22:12.753Z,15.40
2018-09-22T18:24:48.504Z,15.40
2018-09-22T18:30:01.741Z,15.30
2018-09-22T18:32:31.056Z,15.20
2018-09-22T18:35:00.352Z,15.20
2018-09-22T18:37:29.656Z,15.10
2018-09-22T18:39:58.918Z,15.10
2018-09-22T18:42:28.159Z,15.10
2018-09-22T18:44:57.412Z,15.10
2018-09-22T18:47:26.699Z,15.10
2018-09-22T18:49:56.201Z,15.10
2018-09-22T18:52:25.526Z,15.10
2018-09-22T18:54:54.839Z,15.10
2018-09-22T18:57:24.097Z,15.00
2018-09-22T18:59:53.354Z,15.00
2018-09-22T19:02:22.682Z,15.00
2018-09-22T19:04:51.954Z,14.90
2018-09-22T19:07:21.381Z,14.90
2018-09-22T19:09:50.778Z,14.90
2018-09-22T19:12:20.119Z,14.80
2018-09-22T19:15:51.542Z,14.80
2018-09-22T19:18:25.970Z,14.70
2018-09-22T19:21:01.743Z,14.60
2018-09-22T19:23:36.593Z,14.60
2018-09-22T19:26:24.243Z,14.50
2018-09-22T19:31:00.142Z,14.50
2018-09-22T19:33:35.955Z,14.50
2018-09-22T19:36:09.170Z,14.50
2018-09-22T19:38:46.845Z,14.40
2018-09-22T19:41:27.802Z,14.40
2018-09-22T19:44:01.304Z,14.40
2018-09-22T19:46:36.659Z,14.40
2018-09-22T19:49:12.745Z,14.40
2018-09-22T19:51:54.053Z,14.40
2018-09-22T19:54:25.683Z,14.40
2018-09-22T19:56:58.694Z,14.40
2018-09-22T19:59:32.471Z,14.40
2018-09-22T20:02:05.470Z,14.40
2018-09-22T20:04:35.970Z,14.40
2018-09-22T20:07:05.334Z,14.40
2018-09-22T20:09:34.689Z,14.30
2018-09-22T20:12:04.881Z,14.20
2018-09-22T20:14:34.129Z,14.20
2018-09-22T20:17:03.399Z,14.10
2018-09-22T20:19:32.745Z,14.10
2018-09-22T20:22:02.030Z,14.10
2018-09-22T20:24:31.253Z,14.10
2018-09-22T20:27:00.487Z,14.20
2018-09-22T20:29:29.750Z,14.10
2018-09-22T20:31:59.000Z,14.20
2018-09-22T20:34:28.351Z,14.20
2018-09-22T20:36:57.698Z,14.00
2018-09-22T20:39:27.035Z,14.10
2018-09-22T20:41:56.279Z,14.10
2018-09-22T20:44:25.567Z,14.10
2018-09-22T20:46:54.902Z,14.10
2018-09-22T20:49:25.330Z,14.10
2018-09-22T20:51:55.446Z,14.00
2018-09-22T20:54:25.899Z,14.00
2018-09-22T20:56:56.430Z,14.10
2018-09-22T20:59:26.561Z,14.10
2018-09-22T21:01:57.517Z,14.10
2018-09-22T21:04:27.451Z,14.10
2018-09-22T21:06:56.726Z,14.00
2018-09-22T21:09:25.994Z,13.80
2018-09-22T21:11:55.283Z,13.70
2018-09-22T21:14:24.493Z,13.70
2018-09-22T21:16:53.871Z,13.60
2018-09-22T21:19:23.171Z,13.60
2018-09-22T21:21:52.457Z,13.60
2018-09-22T21:24:22.367Z,13.60
2018-09-22T21:26:51.602Z,13.50
2018-09-22T21:29:20.932Z,13.50
2018-09-22T21:31:50.251Z,13.50
2018-09-22T21:34:19.690Z,13.50
2018-09-22T21:36:49.110Z,13.40
2018-09-22T21:39:20.034Z,13.30
2018-09-22T21:41:49.346Z,13.30
2018-09-22T21:44:18.751Z,13.30
2018-09-22T21:46:48.035Z,13.20
2018-09-22T21:49:17.318Z,13.20
2018-09-22T21:51:46.605Z,13.20
2018-09-22T21:54:16.483Z,13.30
2018-09-22T21:56:45.725Z,13.30
2018-09-22T21:59:14.938Z,13.20
2018-09-22T22:01:44.270Z,13.20
2018-09-22T22:04:13.525Z,13.00
2018-09-22T22:06:42.750Z,13.00
2018-09-22T22:09:13.291Z,13.00
2018-09-22T22:11:42.678Z,12.90
2018-09-22T22:14:11.985Z,12.90
2018-09-22T22:16:41.284Z,12.90
2018-09-22T22:19:10.581Z,12.80
2018-09-22T22:21:39.828Z,12.90
2018-09-22T22:24:09.188Z,12.90
2018-09-22T22:26:38.497Z,13.00
2018-09-22T22:29:07.713Z,13.10
2018-09-22T22:31:36.937Z,13.10
2018-09-22T22:34:06.181Z,13.10
2018-09-22T22:36:35.385Z,13.10
2018-09-22T22:39:05.430Z,13.10
2018-09-22T22:41:34.699Z,13.10
2018-09-22T22:44:03.952Z,13.10
2018-09-22T22:46:33.306Z,13.10
2018-09-22T22:49:02.601Z,13.20
2018-09-22T22:51:31.866Z,13.10
2018-09-22T22:54:01.146Z,13.20
2018-09-22T22:56:30.403Z,13.20
2018-09-22T22:58:59.678Z,13.20
2018-09-22T23:01:28.951Z,13.20
2018-09-22T23:03:58.262Z,13.20
2018-09-22T23:06:27.526Z,13.30
2018-09-22T23:08:56.801Z,13.30
2018-09-22T23:11:26.058Z,13.30
2018-09-22T23:13:55.355Z,13.40
2018-09-22T23:16:24.634Z,13.50
2018-09-22T23:18:53.920Z,13.60
2018-09-22T23:21:23.185Z,13.60
2018-09-22T23:23:52.466Z,13.50
2018-09-22T23:26:21.758Z,13.50
2018-09-22T23:28:51.010Z,13.50
2018-09-22T23:31:20.345Z,13.50
2018-09-22T23:33:49.615Z,13.40
2018-09-22T23:36:18.957Z,13.40
2018-09-22T23:38:48.305Z,13.40
2018-09-22T23:41:17.603Z,13.40
2018-09-22T23:43:46.893Z,13.40
2018-09-22T23:46:16.130Z,13.30
2018-09-22T23:48:45.366Z,13.30
2018-09-22T23:51:14.605Z,13.30
2018-09-22T23:53:43.851Z,13.30
2018-09-22T23:56:13.074Z,13.30
2018-09-22T23:58:42.400Z,13.20
